Time;durP1;ratioP1;P1;durP2;ratioP2;P2;SDS_P1;SDS_P2;PMS_P1;PMS_P2;Temp;Humidity;BMP_temperature;BMP_pressure;BME280_temperature;BME280_humidity;BME280_pressure;Samples;Min_cycle;Max_cycle;Signal;HPM_P1;HPM_P2
2023/01/14 01:34:09;;;;;;;3.72;3.53;;;1.80;99.90;;;;;;6146195;23;20405;-74
2023/01/14 01:36:36;;;;;;;3.33;3.13;;;1.70;99.90;;;;;;6151392;23;20429;-74
2023/01/14 01:39:03;;;;;;;3.70;3.50;;;1.60;99.90;;;;;;6150556;23;20756;-73
2023/01/14 01:41:31;;;;;;;3.42;3.28;;;1.50;99.90;;;;;;6125680;23;20465;-74
2023/01/14 01:44:04;;;;;;;3.30;3.10;;;1.60;99.90;;;;;;6126569;23;20382;-73
2023/01/14 01:46:32;;;;;;;2.97;2.88;;;1.60;99.90;;;;;;6150963;23;20459;-75
2023/01/14 01:49:22;;;;;;;3.60;3.40;;;1.50;99.90;;;;;;6150772;23;20455;-73
2023/01/14 01:51:54;;;;;;;3.90;3.70;;;1.30;99.90;;;;;;6124477;23;20807;-73
2023/01/14 01:54:26;;;;;;;3.50;3.30;;;1.10;99.90;;;;;;6152072;23;20393;-73
2023/01/14 01:56:53;;;;;;;3.55;3.33;;;1.10;99.90;;;;;;6151023;23;20428;-73
2023/01/14 01:59:24;;;;;;;3.33;3.22;;;1.10;99.90;;;;;;6126413;23;20409;-74
2023/01/14 02:29:26;;;;;;;4.93;4.63;;;0.60;99.90;;;;;;6146631;23;20373;-75
2023/01/14 02:32:12;;;;;;;4.85;4.57;;;0.50;99.90;;;;;;6124916;23;20370;-76
2023/01/14 02:34:54;;;;;;;4.85;4.60;;;0.50;99.90;;;;;;6125676;23;20468;-75
2023/01/14 02:37:36;;;;;;;4.40;4.18;;;0.50;99.90;;;;;;6125144;23;20558;-75
2023/01/14 02:40:27;;;;;;;4.50;4.20;;;0.50;99.90;;;;;;6125420;23;20417;-76
2023/01/14 02:46:09;;;;;;;4.10;3.90;;;0.70;99.90;;;;;;6150816;23;20440;-77
2023/01/14 02:48:38;;;;;;;4.45;4.15;;;0.70;99.90;;;;;;6126058;23;20365;-74
2023/01/14 02:51:06;;;;;;;4.25;4.05;;;0.80;99.90;;;;;;6125950;23;20408;-74
2023/01/14 02:53:32;;;;;;;3.70;3.50;;;0.80;99.90;;;;;;6151645;23;20433;-74
2023/01/14 02:55:59;;;;;;;3.90;3.70;;;0.80;99.90;;;;;;6124915;23;20373;-75
2023/01/14 02:58:50;;;;;;;4.00;3.80;;;0.80;99.90;;;;;;6125012;23;20449;-75
2023/01/14 03:01:55;;;;;;;4.03;3.80;;;0.70;99.90;;;;;;6124753;23;20679;-75
2023/01/14 03:04:37;;;;;;;3.75;3.55;;;0.40;99.90;;;;;;6096068;23;20885;-74
2023/01/14 03:07:22;;;;;;;4.20;4.00;;;0.40;99.90;;;;;;6095090;23;20489;-74
2023/01/14 03:10:18;;;;;;;3.78;3.58;;;0.40;99.90;;;;;;6096487;23;20467;-75
2023/01/14 03:12:52;;;;;;;3.67;3.47;;;0.40;99.90;;;;;;6096008;23;20793;-74
2023/01/14 03:15:41;;;;;;;4.60;4.30;;;0.30;99.90;;;;;;6096543;23;20422;-75
2023/01/14 03:18:20;;;;;;;3.83;3.63;;;0.30;99.90;;;;;;6095751;23;20426;-75
2023/01/14 03:20:54;;;;;;;3.80;3.60;;;0.30;99.90;;;;;;6121191;23;20698;-74
2023/01/14 03:23:25;;;;;;;4.10;3.90;;;0.20;99.90;;;;;;6096596;23;20484;-74
2023/01/14 03:25:53;;;;;;;3.90;3.70;;;0.20;99.90;;;;;;6094757;23;20391;-78
2023/01/14 03:28:24;;;;;;;3.78;3.58;;;0.10;99.90;;;;;;6096427;23;20371;-75
2023/01/14 03:30:58;;;;;;;4.18;3.90;;;0.10;99.90;;;;;;6095446;23;20907;-74
2023/01/14 03:33:33;;;;;;;4.07;3.87;;;0.00;99.90;;;;;;6096205;23;20401;-76
2023/01/14 03:36:01;;;;;;;4.13;3.92;;;0.10;99.90;;;;;;6095163;23;20383;-74
2023/01/14 03:38:41;;;;;;;4.05;3.85;;;0.10;99.90;;;;;;6094552;23;20379;-75
2023/01/14 03:41:11;;;;;;;4.07;3.88;;;0.10;99.90;;;;;;6094975;23;20380;-76
2023/01/14 03:43:46;;;;;;;4.07;3.88;;;0.10;99.90;;;;;;6095871;23;20399;-75
2023/01/14 03:46:14;;;;;;;3.97;3.78;;;0.20;99.90;;;;;;6095501;23;20506;-76
2023/01/14 03:48:41;;;;;;;4.05;3.85;;;0.20;99.90;;;;;;6096261;23;20380;-75
2023/01/14 03:51:24;;;;;;;4.68;4.40;;;0.20;99.90;;;;;;6095712;23;20391;-75
2023/01/14 03:54:09;;;;;;;4.20;4.00;;;0.20;99.90;;;;;;6095970;23;20406;-78
2023/01/14 03:56:51;;;;;;;4.47;4.22;;;0.30;99.90;;;;;;6096527;23;20399;-79
2023/01/14 03:59:45;;;;;;;4.38;4.13;;;0.20;99.90;;;;;;6096017;23;20442;-79
2023/01/14 04:02:13;;;;;;;4.00;3.80;;;0.40;99.90;;;;;;6076478;23;20500;-74
2023/01/14 04:04:43;;;;;;;4.60;4.30;;;0.50;99.90;;;;;;6096065;23;20740;-74
2023/01/14 04:07:10;;;;;;;4.07;3.87;;;0.70;99.90;;;;;;6095418;23;20395;-75
2023/01/14 04:09:37;;;;;;;4.10;3.90;;;0.70;99.90;;;;;;6095787;23;20403;-75
2023/01/14 04:12:04;;;;;;;3.83;3.63;;;0.80;99.90;;;;;;6095140;23;20426;-75
2023/01/14 04:17:16;;;;;;;4.00;3.80;;;0.70;99.90;;;;;;6120353;23;20391;-75
2023/01/14 04:19:43;;;;;;;4.00;3.80;;;0.70;99.90;;;;;;6096035;23;20412;-76
2023/01/14 04:22:10;;;;;;;3.80;3.60;;;0.70;99.90;;;;;;6095418;23;20708;-74
2023/01/14 04:24:37;;;;;;;4.20;4.00;;;0.70;99.90;;;;;;6095439;23;20422;-74
2023/01/14 04:27:04;;;;;;;4.15;3.95;;;0.50;99.90;;;;;;6094908;23;20431;-75
2023/01/14 04:29:31;;;;;;;4.97;4.68;;;0.40;99.90;;;;;;6120834;23;20376;-75
2023/01/14 04:31:57;;;;;;;4.22;4.00;;;0.50;99.90;;;;;;6094879;23;20439;-75
2023/01/14 04:34:24;;;;;;;4.00;3.80;;;0.50;99.90;;;;;;6095505;23;20740;-74
2023/01/14 04:36:53;;;;;;;4.03;3.83;;;0.60;99.90;;;;;;6095711;23;20466;-76
2023/01/14 04:39:20;;;;;;;4.10;3.88;;;0.50;99.90;;;;;;6095759;23;20372;-74
2023/01/14 04:44:32;;;;;;;3.75;3.55;;;0.40;99.90;;;;;;6122598;23;20918;-75
2023/01/14 04:46:59;;;;;;;4.00;3.80;;;0.40;99.90;;;;;;6097128;23;20411;-78
2023/01/14 04:49:26;;;;;;;3.90;3.70;;;0.10;99.90;;;;;;6096882;23;20430;-74
2023/01/14 04:51:53;;;;;;;4.07;3.87;;;0.10;99.90;;;;;;6097754;23;20426;-76
2023/01/14 04:54:20;;;;;;;3.58;3.38;;;0.00;99.90;;;;;;6096774;23;20388;-74
2023/01/14 04:56:46;;;;;;;4.38;4.18;;;0.00;99.90;;;;;;6097791;23;20689;-75
2023/01/14 04:59:14;;;;;;;4.17;3.97;;;-0.20;99.90;;;;;;6096614;23;20410;-74
2023/01/14 05:01:41;;;;;;;3.92;3.63;;;-0.10;99.90;;;;;;6096579;23;20376;-76
2023/01/14 05:04:08;;;;;;;3.70;3.55;;;-0.10;99.90;;;;;;6097679;23;20380;-75
2023/01/14 05:06:35;;;;;;;3.75;3.55;;;-0.20;99.90;;;;;;6096766;23;20677;-76
2023/01/14 05:09:01;;;;;;;4.45;4.25;;;-0.20;99.90;;;;;;6097051;23;20760;-75
2023/01/14 05:11:28;;;;;;;4.00;3.80;;;-0.20;99.90;;;;;;6096210;23;20454;-75
2023/01/14 05:13:55;;;;;;;4.07;3.80;;;-0.10;99.90;;;;;;6097672;23;20475;-74
2023/01/14 05:16:23;;;;;;;4.03;3.83;;;-0.20;99.90;;;;;;6096220;23;20383;-75
2023/01/14 05:18:51;;;;;;;4.13;3.92;;;-0.30;99.90;;;;;;6097742;23;20713;-75
2023/01/14 05:21:18;;;;;;;4.50;4.20;;;-0.30;99.90;;;;;;6096070;23;20426;-75
2023/01/14 05:23:45;;;;;;;4.10;3.90;;;-0.30;99.90;;;;;;6097611;23;20383;-75
2023/01/14 05:26:12;;;;;;;3.85;3.65;;;-0.30;99.90;;;;;;6095725;23;20382;-79
2023/01/14 05:28:39;;;;;;;3.50;3.30;;;-0.30;99.90;;;;;;6097313;23;20399;-75
2023/01/14 05:31:06;;;;;;;3.72;3.53;;;-0.30;99.90;;;;;;6096862;23;20702;-75
2023/01/14 05:33:33;;;;;;;3.50;3.30;;;-0.30;99.90;;;;;;6096499;23;20376;-75
2023/01/14 05:36:01;;;;;;;3.80;3.60;;;-0.40;99.90;;;;;;6096632;23;20383;-74
2023/01/14 05:38:28;;;;;;;3.70;3.50;;;-0.40;99.90;;;;;;6096217;23;20724;-75
2023/01/14 05:40:55;;;;;;;3.80;3.60;;;-0.40;99.90;;;;;;6097092;23;20383;-75
2023/01/14 05:46:16;;;;;;;3.80;3.60;;;-0.60;99.90;;;;;;6122294;23;20407;-75
2023/01/14 05:48:43;;;;;;;4.28;4.07;;;-0.70;99.90;;;;;;6121722;23;20367;-75
2023/01/14 05:51:12;;;;;;;4.25;4.05;;;-0.70;99.90;;;;;;6096460;23;20419;-75
2023/01/14 05:53:40;;;;;;;5.00;4.70;;;-0.70;99.90;;;;;;6096183;23;20375;-76
2023/01/14 05:56:07;;;;;;;5.07;4.78;;;-0.70;99.90;;;;;;6097096;23;20376;-75
2023/01/14 05:58:34;;;;;;;4.60;4.40;;;-0.70;99.90;;;;;;6095653;23;20395;-74
2023/01/14 06:06:39;;;;;;;4.15;3.90;;;-0.80;99.90;;;;;;6120979;23;20380;-75
2023/01/14 06:09:09;;;;;;;5.43;5.13;;;-0.90;99.90;;;;;;6097250;23;20372;-74
2023/01/14 06:11:39;;;;;;;4.35;4.15;;;-1.10;99.90;;;;;;6095873;23;20874;-75
2023/01/14 06:14:07;;;;;;;4.50;4.20;;;-1.10;99.90;;;;;;6096838;23;20372;-75
2023/01/14 06:16:40;;;;;;;4.28;4.07;;;-1.10;99.90;;;;;;6095935;23;20431;-74
2023/01/14 06:19:09;;;;;;;4.13;3.92;;;-1.00;99.90;;;;;;6096391;23;20384;-76
2023/01/14 06:21:37;;;;;;;4.10;3.90;;;-1.00;99.90;;;;;;6095882;23;20431;-76
2023/01/14 06:24:05;;;;;;;4.47;4.28;;;-1.00;99.90;;;;;;6096819;23;20693;-75
2023/01/14 06:26:35;;;;;;;5.03;4.72;;;-1.00;99.90;;;;;;6095002;23;20708;-75
2023/01/14 06:29:05;;;;;;;7.43;6.95;;;-1.10;99.90;;;;;;6096498;23;20380;-76
2023/01/14 06:31:32;;;;;;;7.47;7.07;;;-1.00;99.90;;;;;;6071846;23;20744;-76
2023/01/14 06:34:03;;;;;;;6.68;6.28;;;-1.00;99.90;;;;;;6096537;23;20410;-75
2023/01/14 06:36:31;;;;;;;6.50;6.10;;;-0.90;99.90;;;;;;6095738;23;20376;-75
2023/01/14 06:38:59;;;;;;;9.90;9.15;;;-1.00;99.90;;;;;;6096728;23;20439;-75
2023/01/14 06:41:26;;;;;;;8.85;8.25;;;-1.00;99.90;;;;;;6096696;23;20407;-75
2023/01/14 06:43:53;;;;;;;10.70;9.80;;;-1.00;99.90;;;;;;6121282;23;20368;-74
2023/01/14 06:46:20;;;;;;;10.65;9.80;;;-1.00;99.90;;;;;;6096523;23;20427;-75
2023/01/14 06:48:47;;;;;;;8.63;7.93;;;-1.00;99.90;;;;;;6095801;23;20371;-74
2023/01/14 06:51:17;;;;;;;8.02;7.53;;;-1.10;99.90;;;;;;6121968;23;20836;-75
2023/01/14 06:53:44;;;;;;;7.28;6.78;;;-1.10;99.90;;;;;;6095575;23;20368;-76
2023/01/14 06:56:14;;;;;;;6.10;5.70;;;-1.10;99.90;;;;;;6096595;23;20383;-75
2023/01/14 06:58:41;;;;;;;6.35;5.95;;;-1.10;99.90;;;;;;6095930;23;20376;-76
2023/01/14 07:01:09;;;;;;;5.82;5.43;;;-1.20;99.90;;;;;;6096296;23;20382;-80
2023/01/14 07:03:38;;;;;;;5.17;4.87;;;-1.20;99.90;;;;;;6095429;23;20752;-75
2023/01/14 07:06:05;;;;;;;6.32;5.93;;;-1.20;99.90;;;;;;6096281;23;20397;-76
2023/01/14 07:08:32;;;;;;;6.10;5.70;;;-1.20;99.90;;;;;;6095928;23;20376;-75
2023/01/14 07:11:00;;;;;;;5.78;5.47;;;-1.20;99.90;;;;;;6121822;23;20426;-75
2023/01/14 07:13:27;;;;;;;5.88;5.55;;;-1.10;99.90;;;;;;6072255;23;20713;-75
2023/01/14 07:15:54;;;;;;;6.03;5.63;;;-1.10;99.90;;;;;;6094687;23;20375;-76
2023/01/14 07:18:21;;;;;;;6.18;5.78;;;-1.00;99.90;;;;;;6096123;23;20376;-76
2023/01/14 07:20:48;;;;;;;5.00;4.70;;;-1.00;99.90;;;;;;6094802;23;20446;-75
2023/01/14 07:23:14;;;;;;;4.43;4.10;;;-1.00;99.90;;;;;;6095560;23;20466;-76
2023/01/14 07:25:42;;;;;;;4.20;4.00;;;-1.00;99.90;;;;;;6094569;23;20383;-75
2023/01/14 07:28:09;;;;;;;4.20;4.00;;;-1.00;99.90;;;;;;6095642;23;20468;-76
2023/01/14 07:30:36;;;;;;;4.70;4.47;;;-1.00;99.90;;;;;;6094787;23;20686;-76
2023/01/14 07:33:03;;;;;;;6.18;5.78;;;-1.10;99.90;;;;;;6096428;23;20756;-76
2023/01/14 07:35:30;;;;;;;7.40;6.82;;;-1.10;99.90;;;;;;6095834;23;20379;-75
2023/01/14 07:37:59;;;;;;;6.35;5.95;;;-1.10;99.90;;;;;;6095767;23;20858;-75
2023/01/14 07:40:27;;;;;;;7.65;7.15;;;-1.00;99.90;;;;;;6096039;23;20375;-76
2023/01/14 07:42:56;;;;;;;8.00;7.40;;;-0.90;99.90;;;;;;6095420;23;20443;-77
2023/01/14 07:45:24;;;;;;;6.40;6.00;;;-0.90;99.90;;;;;;6095331;23;20383;-75
2023/01/14 07:47:51;;;;;;;6.28;5.88;;;-0.80;99.90;;;;;;6093499;23;20384;-75
2023/01/14 07:50:19;;;;;;;5.20;4.90;;;-0.80;99.90;;;;;;6095656;23;20375;-75
2023/01/14 07:52:57;;;;;;;4.82;4.53;;;-0.70;99.90;;;;;;6095026;23;20760;-75
2023/01/14 07:55:25;;;;;;;11.00;10.20;;;-0.60;99.90;;;;;;6119325;23;20756;-76
2023/01/14 07:57:52;;;;;;;9.82;9.05;;;-0.40;99.90;;;;;;6093873;23;20910;-75
2023/01/14 08:00:20;;;;;;;8.13;7.53;;;-0.10;99.90;;;;;;6095725;23;20368;-75
2023/01/14 08:02:47;;;;;;;7.88;7.28;;;0.30;99.90;;;;;;6095734;23;20364;-75
2023/01/14 08:05:14;;;;;;;7.60;7.00;;;0.80;99.90;;;;;;6096129;23;20403;-75
2023/01/14 08:07:41;;;;;;;6.78;6.28;;;1.10;99.90;;;;;;6119258;23;20380;-75
2023/01/14 08:10:09;;;;;;;6.50;6.10;;;1.10;99.90;;;;;;6096220;23;20379;-75
2023/01/14 08:12:36;;;;;;;6.28;5.88;;;1.30;99.90;;;;;;6094986;23;20376;-75
2023/01/14 08:15:06;;;;;;;6.43;6.03;;;1.50;99.90;;;;;;6095956;23;20412;-77
2023/01/14 08:17:33;;;;;;;5.75;5.45;;;1.60;99.90;;;;;;6097430;23;20600;-75
2023/01/14 08:20:00;;;;;;;5.40;5.10;;;1.80;99.90;;;;;;6097060;23;20681;-74
2023/01/14 08:22:30;;;;;;;5.90;5.50;;;1.90;99.90;;;;;;6098368;23;20371;-74
2023/01/14 08:24:57;;;;;;;5.22;4.93;;;2.00;99.90;;;;;;6096981;23;20469;-74
2023/01/14 08:27:27;;;;;;;5.90;5.53;;;2.20;99.90;;;;;;6097702;23;20459;-75
2023/01/14 08:29:55;;;;;;;5.63;5.32;;;2.30;99.90;;;;;;6097120;23;20426;-75
2023/01/14 08:32:23;;;;;;;5.60;5.28;;;2.40;99.90;;;;;;6123716;23;20940;-75
2023/01/14 08:34:50;;;;;;;5.03;4.72;;;2.60;99.90;;;;;;6097418;23;20418;-74
2023/01/14 08:37:17;;;;;;;4.70;4.50;;;2.60;99.90;;;;;;6097718;23;20427;-74
2023/01/14 08:39:44;;;;;;;4.88;4.57;;;2.80;99.90;;;;;;6096502;23;20831;-74
2023/01/14 08:42:11;;;;;;;5.30;4.90;;;2.90;99.90;;;;;;6097982;23;20371;-75
2023/01/14 08:44:38;;;;;;;5.50;5.20;;;2.90;99.90;;;;;;6096512;23;20447;-77
2023/01/14 08:47:04;;;;;;;5.80;5.47;;;3.10;99.90;;;;;;6097575;23;20915;-75
2023/01/14 08:49:31;;;;;;;5.57;5.28;;;3.20;99.90;;;;;;6097308;23;20371;-74
2023/01/14 08:51:59;;;;;;;6.20;5.80;;;3.10;99.90;;;;;;6097174;23;20404;-74
2023/01/14 08:54:26;;;;;;;6.20;5.80;;;3.10;99.90;;;;;;6097580;23;20383;-75
2023/01/14 08:56:56;;;;;;;6.22;5.93;;;3.10;99.90;;;;;;6122306;23;20384;-75
2023/01/14 08:59:24;;;;;;;7.93;7.43;;;3.10;99.90;;;;;;6097910;23;20375;-75
2023/01/14 09:01:52;;;;;;;7.65;7.15;;;3.30;99.90;;;;;;6096356;23;20396;-74
2023/01/14 09:04:24;;;;;;;5.25;4.95;;;3.50;99.90;;;;;;6098177;23;20368;-75
2023/01/14 09:18:00;;;;;;;3.47;3.28;;;3.50;99.90;;;;;;6121961;23;20384;-77
2023/01/14 09:20:33;;;;;;;4.30;4.10;;;3.60;99.90;;;;;;6097322;23;20704;-75
2023/01/14 09:23:03;;;;;;;3.92;3.72;;;3.70;99.90;;;;;;6096185;23;20787;-75
2023/01/14 09:25:30;;;;;;;4.45;4.25;;;3.80;99.90;;;;;;6097644;23;20407;-75
2023/01/14 09:27:56;;;;;;;3.90;3.70;;;3.90;99.90;;;;;;6096764;23;20888;-74
2023/01/14 09:30:24;;;;;;;5.00;4.70;;;4.00;99.90;;;;;;6096793;23;20681;-75
2023/01/14 09:32:51;;;;;;;4.57;4.35;;;4.10;99.90;;;;;;6096816;23;20383;-74
2023/01/14 09:35:18;;;;;;;4.43;4.23;;;4.20;99.90;;;;;;6096241;23;20390;-75
2023/01/14 09:37:45;;;;;;;3.97;3.78;;;4.50;99.90;;;;;;6097122;23;20708;-75
2023/01/14 09:40:13;;;;;;;4.30;4.10;;;4.70;99.90;;;;;;6096837;23;20447;-75
2023/01/14 09:42:47;;;;;;;4.95;4.70;;;4.90;99.90;;;;;;6096749;23;20376;-75
2023/01/14 09:45:24;;;;;;;5.43;5.03;;;5.20;97.70;;;;;;6096550;23;20474;-74
2023/01/14 09:47:52;;;;;;;4.65;4.35;;;5.30;98.00;;;;;;6122560;23;20418;-74
2023/01/14 09:50:34;;;;;;;4.80;4.50;;;5.50;97.30;;;;;;6096125;23;20372;-75
2023/01/14 09:53:07;;;;;;;4.53;4.22;;;5.80;97.80;;;;;;6097520;23;20376;-76
2023/01/14 09:55:44;;;;;;;4.60;4.30;;;6.00;97.60;;;;;;6096875;23;20389;-75
2023/01/14 09:58:25;;;;;;;3.27;3.07;;;6.30;96.60;;;;;;6095712;23;20832;-76
2023/01/14 10:01:11;;;;;;;2.45;2.35;;;6.50;89.90;;;;;;6097262;23;20384;-75
2023/01/14 10:04:01;;;;;;;2.40;2.30;;;6.90;81.70;;;;;;6096117;23;20442;-75
2023/01/14 10:06:28;;;;;;;2.97;2.80;;;7.10;81.30;;;;;;6094525;23;20386;-76
2023/01/14 10:09:03;;;;;;;3.67;3.47;;;7.20;80.90;;;;;;6094158;23;20451;-75
2023/01/14 10:11:35;;;;;;;3.63;3.42;;;7.10;80.50;;;;;;6095693;23;20376;-75
2023/01/14 10:14:23;;;;;;;3.70;3.50;;;7.10;83.00;;;;;;6097137;23;20380;-75
2023/01/14 10:16:56;;;;;;;2.75;2.65;;;7.20;78.30;;;;;;6095314;23;20379;-74
2023/01/14 10:19:30;;;;;;;2.60;2.50;;;7.20;78.90;;;;;;6095977;23;20413;-74
2023/01/14 10:22:18;;;;;;;2.70;2.60;;;7.00;74.50;;;;;;6095683;23;20399;-76
2023/01/14 10:24:45;;;;;;;3.20;3.00;;;6.80;76.50;;;;;;6095623;23;20713;-74
2023/01/14 10:27:15;;;;;;;2.80;2.67;;;7.00;77.80;;;;;;6096357;23;20372;-78
2023/01/14 10:29:42;;;;;;;2.60;2.50;;;7.20;78.00;;;;;;6120953;23;20717;-74
2023/01/14 10:32:15;;;;;;;2.20;2.10;;;7.30;75.80;;;;;;6096406;23;20740;-76
2023/01/14 10:34:46;;;;;;;2.33;2.20;;;7.30;75.90;;;;;;6095780;23;20403;-78
2023/01/14 10:37:15;;;;;;;2.30;2.20;;;7.40;74.40;;;;;;6089841;23;20748;-74
2023/01/14 10:39:50;;;;;;;2.30;2.20;;;7.50;73.30;;;;;;6072002;23;20400;-75
2023/01/14 10:42:31;;;;;;;2.27;2.17;;;7.70;69.90;;;;;;6096907;23;20459;-75
2023/01/14 10:44:59;;;;;;;2.38;2.28;;;7.70;71.00;;;;;;6095759;23;20383;-76
2023/01/14 10:47:26;;;;;;;2.60;2.40;;;7.80;69.70;;;;;;6096005;23;20372;-76
2023/01/14 10:50:01;;;;;;;2.15;2.05;;;7.80;67.50;;;;;;6095313;23;20388;-77
2023/01/14 10:52:33;;;;;;;2.30;2.20;;;8.00;68.00;;;;;;6096264;23;20493;-76
2023/01/14 10:55:16;;;;;;;2.20;2.10;;;8.20;66.80;;;;;;6096019;23;20391;-75
2023/01/14 10:57:58;;;;;;;1.90;1.80;;;8.30;66.50;;;;;;6095272;23;20783;-75
2023/01/14 11:00:40;;;;;;;2.45;2.25;;;8.60;66.20;;;;;;6121139;23;20383;-75
2023/01/14 11:03:09;;;;;;;2.38;2.20;;;8.70;65.70;;;;;;6096270;23;20662;-75
2023/01/14 11:05:39;;;;;;;1.70;1.60;;;8.80;63.80;;;;;;6096691;23;20442;-74
2023/01/14 11:08:33;;;;;;;1.73;1.63;;;9.00;62.00;;;;;;6094259;23;20384;-75
2023/01/14 11:11:05;;;;;;;1.40;1.40;;;9.00;62.30;;;;;;6094733;23;20408;-78
2023/01/14 11:13:36;;;;;;;1.25;1.17;;;9.20;63.00;;;;;;6122226;23;20376;-78
2023/01/14 11:16:05;;;;;;;1.20;1.10;;;9.30;61.50;;;;;;6120835;23;20380;-78
2023/01/14 11:18:33;;;;;;;1.00;1.00;;;9.50;60.40;;;;;;6096735;23;20393;-78
2023/01/14 11:21:16;;;;;;;1.00;1.00;;;9.60;59.30;;;;;;6095173;23;20699;-78
2023/01/14 11:24:02;;;;;;;1.23;1.00;;;9.80;59.80;;;;;;6096350;23;20407;-78
2023/01/14 11:26:31;;;;;;;1.00;1.00;;;9.90;59.00;;;;;;6121142;23;20375;-78
2023/01/14 11:29:22;;;;;;;0.90;0.90;;;9.80;57.80;;;;;;6095640;23;20388;-78
2023/01/14 11:32:11;;;;;;;0.90;0.90;;;10.00;57.80;;;;;;6119264;23;20844;-78
2023/01/14 11:34:47;;;;;;;1.00;1.00;;;10.00;56.70;;;;;;6120682;23;20446;-78
2023/01/14 11:37:21;;;;;;;1.20;0.90;;;10.00;57.90;;;;;;6095995;23;20462;-78
2023/01/14 11:39:51;;;;;;;1.00;1.00;;;10.10;56.80;;;;;;6092445;23;20470;-78
2023/01/14 11:42:39;;;;;;;1.00;1.00;;;10.20;56.50;;;;;;6093154;23;20768;-78
2023/01/14 11:45:12;;;;;;;1.07;1.07;;;10.20;56.90;;;;;;6095029;23;21152;-79
2023/01/14 11:47:55;;;;;;;1.13;1.00;;;10.40;56.40;;;;;;6121807;23;20375;-78
2023/01/14 11:50:30;;;;;;;1.10;1.00;;;10.40;56.40;;;;;;6096742;23;20388;-78
2023/01/14 11:53:06;;;;;;;1.10;1.00;;;10.40;56.40;;;;;;6098004;23;20378;-78
2023/01/14 11:55:36;;;;;;;1.00;0.90;;;10.40;56.00;;;;;;6097947;23;20379;-78
2023/01/14 11:58:16;;;;;;;1.00;1.00;;;10.60;56.00;;;;;;6096552;23;20406;-78
2023/01/14 12:00:53;;;;;;;1.00;1.00;;;10.70;55.10;;;;;;6095638;23;20776;-78
2023/01/14 12:03:46;;;;;;;1.10;1.10;;;10.70;55.20;;;;;;6096481;23;20492;-78
2023/01/14 12:06:22;;;;;;;1.40;1.25;;;10.90;56.00;;;;;;6095622;23;20443;-77
2023/01/14 12:08:55;;;;;;;1.08;1.08;;;10.90;55.20;;;;;;6121117;23;20495;-77
2023/01/14 12:12:11;;;;;;;1.10;1.10;;;11.00;54.20;;;;;;6095794;23;20764;-78
2023/01/14 12:17:49;;;;;;;1.00;1.00;;;11.00;55.00;;;;;;6120675;23;20390;-78
2023/01/14 12:20:21;;;;;;;0.93;0.93;;;10.90;55.30;;;;;;6094562;23;20459;-78
2023/01/14 12:23:10;;;;;;;1.10;1.10;;;10.90;54.40;;;;;;6096999;23;20748;-78
2023/01/14 12:25:44;;;;;;;1.35;1.25;;;10.90;54.30;;;;;;6096555;23;20380;-78
2023/01/14 12:28:19;;;;;;;0.95;0.88;;;10.90;53.80;;;;;;6098398;23;20387;-78
2023/01/14 12:31:01;;;;;;;0.90;0.90;;;11.00;53.40;;;;;;6097171;23;20910;-78
2023/01/14 12:33:49;;;;;;;1.05;1.05;;;11.00;53.50;;;;;;6096177;23;20379;-77
2023/01/14 12:36:25;;;;;;;1.07;1.00;;;11.10;54.30;;;;;;6097904;23;20391;-78
2023/01/14 12:47:46;;;;;;;1.00;1.00;;;11.20;54.10;;;;;;6121781;23;20430;-78
2023/01/14 12:50:15;;;;;;;0.95;0.95;;;11.20;54.70;;;;;;6123170;23;20740;-78
2023/01/14 12:52:50;;;;;;;0.90;0.90;;;11.20;53.70;;;;;;6095807;23;20430;-78
2023/01/14 12:55:29;;;;;;;1.30;1.20;;;11.20;53.50;;;;;;6096424;23;20704;-78
2023/01/14 12:57:59;;;;;;;0.93;0.93;;;11.20;53.60;;;;;;6096219;23;20444;-78
2023/01/14 13:00:29;;;;;;;1.10;1.00;;;11.30;53.80;;;;;;6121723;23;20380;-78
2023/01/14 13:02:59;;;;;;;1.30;0.93;;;11.20;54.00;;;;;;6095857;23;20446;-78
2023/01/14 13:05:41;;;;;;;1.00;1.00;;;11.10;53.30;;;;;;6096423;23;20408;-78
2023/01/14 13:08:50;;;;;;;1.00;1.00;;;11.10;54.10;;;;;;6096160;23;20451;-78
2023/01/14 13:11:23;;;;;;;1.00;1.00;;;11.10;54.10;;;;;;5925970;24;20389;-78
2023/01/14 13:13:55;;;;;;;0.95;0.90;;;11.10;53.80;;;;;;6102600;23;20403;-78
2023/01/14 13:16:38;;;;;;;1.20;1.10;;;11.10;54.30;;;;;;6121724;23;20372;-78
2023/01/14 13:19:24;;;;;;;0.90;0.90;;;11.00;54.50;;;;;;6121685;23;20403;-78
2023/01/14 13:22:02;;;;;;;0.90;0.90;;;11.00;55.40;;;;;;6122850;23;20431;-78
2023/01/14 13:24:34;;;;;;;1.00;1.00;;;11.10;54.20;;;;;;6096776;23;20383;-78
2023/01/14 13:27:24;;;;;;;1.00;1.00;;;11.10;54.00;;;;;;6097301;23;20478;-78
2023/01/14 13:30:16;;;;;;;0.80;0.80;;;11.10;54.30;;;;;;6096076;23;20844;-78
2023/01/14 13:32:59;;;;;;;1.05;1.05;;;11.10;54.70;;;;;;6119993;23;20390;-78
2023/01/14 13:35:31;;;;;;;1.20;1.20;;;11.10;54.30;;;;;;6095783;23;20434;-78
2023/01/14 13:38:00;;;;;;;1.30;1.00;;;11.20;54.40;;;;;;6121859;23;20430;-78
2023/01/14 13:40:33;;;;;;;1.10;1.10;;;11.20;54.80;;;;;;6096934;23;20545;-77
2023/01/14 13:43:06;;;;;;;1.00;1.00;;;11.30;54.90;;;;;;6096560;23;20368;-78
2023/01/14 13:45:40;;;;;;;1.20;1.00;;;11.40;54.20;;;;;;6097218;23;20376;-78
2023/01/14 13:48:30;;;;;;;0.80;0.80;;;11.40;54.60;;;;;;6096865;23;20899;-78
2023/01/14 13:51:28;;;;;;;1.05;1.05;;;11.50;54.90;;;;;;6071713;23;20407;-77
2023/01/14 13:54:00;;;;;;;1.00;1.00;;;11.50;54.40;;;;;;6095330;23;20376;-77
2023/01/14 13:56:49;;;;;;;1.25;1.20;;;11.60;54.30;;;;;;6121159;23;20380;-79
2023/01/14 13:59:25;;;;;;;0.90;0.90;;;11.60;54.10;;;;;;6096660;23;20368;-77
2023/01/14 14:01:51;;;;;;;0.90;0.90;;;11.60;54.50;;;;;;6095187;23;20374;-77
2023/01/14 14:04:56;;;;;;;1.15;1.05;;;11.50;54.80;;;;;;6097233;23;20376;-77
2023/01/14 14:07:41;;;;;;;0.90;0.90;;;11.50;55.10;;;;;;6096428;23;20390;-78
2023/01/14 14:10:30;;;;;;;1.17;1.17;;;11.50;55.60;;;;;;6095093;23;20422;-79
2023/01/14 14:15:56;;;;;;;1.00;0.90;;;11.50;55.30;;;;;;6121506;23;20384;-79
2023/01/14 14:18:40;;;;;;;1.00;1.00;;;11.40;55.80;;;;;;6096397;23;20380;-79
2023/01/14 14:21:18;;;;;;;1.23;1.13;;;11.40;55.90;;;;;;6095370;23;21241;-79
2023/01/14 14:23:52;;;;;;;0.80;0.80;;;11.40;56.40;;;;;;6095510;23;20399;-78
2023/01/14 14:26:25;;;;;;;1.10;0.82;;;11.30;56.60;;;;;;6096395;23;20384;-79
2023/01/14 14:28:56;;;;;;;0.80;0.80;;;11.20;56.50;;;;;;6095274;23;20713;-79
2023/01/14 14:31:30;;;;;;;0.80;0.80;;;11.20;56.80;;;;;;6096462;23;20399;-79
2023/01/14 14:34:10;;;;;;;0.93;0.93;;;11.20;57.10;;;;;;6094632;23;20769;-79
2023/01/14 14:36:43;;;;;;;1.00;1.00;;;11.20;57.10;;;;;;6096430;23;21022;-78
2023/01/14 14:39:38;;;;;;;1.10;0.93;;;11.10;57.10;;;;;;6121348;23;20372;-79
2023/01/14 14:42:16;;;;;;;1.20;0.90;;;11.10;57.40;;;;;;6091975;23;20907;-79
2023/01/14 14:45:30;;;;;;;0.80;0.80;;;11.10;57.30;;;;;;6096992;23;20753;-79
2023/01/14 14:47:58;;;;;;;0.77;0.77;;;11.10;57.60;;;;;;6112721;23;20360;-78
2023/01/14 14:50:37;;;;;;;0.70;0.70;;;11.10;57.60;;;;;;6096253;23;20762;-79
2023/01/14 14:53:04;;;;;;;0.80;0.77;;;11.00;57.70;;;;;;6094600;23;20376;-78
2023/01/14 14:55:48;;;;;;;0.63;0.63;;;10.90;58.40;;;;;;6095509;23;20376;-79
2023/01/14 14:58:21;;;;;;;0.70;0.70;;;11.00;58.40;;;;;;6095646;23;20375;-78
2023/01/14 15:01:07;;;;;;;0.63;0.63;;;10.90;58.80;;;;;;6095688;23;20431;-78
2023/01/14 15:03:37;;;;;;;0.80;0.73;;;10.90;58.90;;;;;;6119482;23;20403;-78
2023/01/14 15:06:12;;;;;;;0.70;0.70;;;10.90;59.10;;;;;;6094792;23;20442;-78
2023/01/14 15:08:54;;;;;;;0.60;0.60;;;10.80;58.90;;;;;;6094563;23;20375;-78
2023/01/14 15:11:27;;;;;;;0.70;0.70;;;10.70;59.30;;;;;;6120408;23;20447;-78
2023/01/14 15:13:55;;;;;;;0.70;0.70;;;10.70;59.50;;;;;;6094638;23;20760;-78
2023/01/14 15:16:29;;;;;;;0.60;0.60;;;10.60;59.70;;;;;;6094976;23;20470;-78
2023/01/14 15:18:58;;;;;;;0.60;0.60;;;10.60;60.00;;;;;;6094380;23;20423;-78
2023/01/14 15:21:28;;;;;;;0.60;0.60;;;10.50;60.40;;;;;;6120025;23;20855;-78
2023/01/14 15:24:00;;;;;;;1.00;0.70;;;10.40;60.60;;;;;;6095190;23;20418;-78
2023/01/14 15:26:30;;;;;;;0.80;0.80;;;10.30;61.00;;;;;;6120289;23;20379;-78
2023/01/14 15:28:59;;;;;;;0.70;0.70;;;10.20;61.20;;;;;;6095164;23;20450;-78
2023/01/14 15:31:31;;;;;;;0.80;0.80;;;10.20;61.40;;;;;;6095040;23;20422;-77
2023/01/14 15:34:05;;;;;;;1.10;0.80;;;10.10;61.50;;;;;;6095731;23;20444;-77
2023/01/14 15:36:35;;;;;;;0.68;0.68;;;10.00;61.70;;;;;;6094962;23;20752;-77
2023/01/14 15:39:03;;;;;;;0.80;0.80;;;9.90;62.20;;;;;;6095600;23;20439;-77
2023/01/14 15:41:36;;;;;;;0.90;0.90;;;9.70;62.90;;;;;;6095355;23;20399;-77
2023/01/14 15:44:04;;;;;;;1.50;1.40;;;9.50;63.80;;;;;;6096383;23;20414;-78
2023/01/14 15:46:32;;;;;;;2.08;1.98;;;9.40;64.80;;;;;;6095098;23;20378;-77
2023/01/14 15:49:10;;;;;;;2.30;2.20;;;9.20;65.70;;;;;;6096081;23;20388;-77
2023/01/14 15:51:39;;;;;;;4.07;3.78;;;9.10;66.10;;;;;;6120480;23;21744;-77
2023/01/14 15:54:28;;;;;;;3.90;3.65;;;8.90;67.60;;;;;;6095987;23;20496;-77
2023/01/14 15:56:55;;;;;;;3.25;3.05;;;8.80;68.80;;;;;;6094967;23;20403;-78
2023/01/14 15:59:23;;;;;;;2.42;2.22;;;8.80;70.00;;;;;;6095582;23;20760;-78
2023/01/14 16:01:54;;;;;;;1.70;1.60;;;8.70;69.30;;;;;;6094838;23;20741;-78
2023/01/14 16:04:28;;;;;;;2.67;2.53;;;8.60;69.70;;;;;;6094212;23;20450;-78
2023/01/14 16:07:11;;;;;;;1.98;1.88;;;8.60;70.40;;;;;;6095433;23;20451;-77